Algerita, Texas
Current Conditions -  °F | °C
As of 8:30 AM on Friday 31 Oct 2014 (Local Time) from KAQO Reporting Station
Clear Clear  
Wind Chill: 15°   Ceiling: Unl
Heat Index: 15°   Visibility: 10mi
Dew Point:   Wind: 7mph
Humidity: 59%   Direction: 20°NNE
Pressure: 30.32"   Gusts: NA
Location:  31.0718°N, 98.8001°W
Report Text: KAQO 311330Z AUTO 02006KT 10SM CLR 15/07 A3032 RMK AO2
Loading
Personal Weather Stations






























Interactive Weather Map
Tropical Storm Tracking
New forecast layout! Learn more

10-Day Weather Forecast

Advertisements
Track Severe Weather on mobile